Alger, Washington
Current Conditions -  °F | °C
As of 10:35 PM on Friday 19 Dec 2014 (Local Time) from KBVS Reporting Station
Overcast Overcast  
Wind Chill: 43°   Ceiling: 4600
Heat Index: 48°   Visibility: 10mi
Dew Point: 39°   Wind: 14mph
Humidity: 71%   Direction: 110°ESE
Pressure: 29.86"   Gusts: 17mph
Location:  48.4982°N, 122.346°W
Report Text: KBVS 200635Z AUTO 11012G15KT 10SM SCT038 OVC046 09/04 A2986 RMK A01 P000
Loading
Personal Weather Stations






























Interactive Weather Map New forecast layout! Learn more

10-Day Weather Forecast

Advertisements
Track Severe Weather on mobile